Latest Weather Observations for Thevenard

IDS60801

Issued at 11:01 am CST Saturday 1 August 2015 (issued every 30 minutes, with the page automatically refreshed every 10 minutes)

About weather observations | Map of weather stations | Latest weather observations for SA | Other Formats
Station Details ID: 018200 Name: THEVENARD WIND Lat: -32.18 Lon: 133.63 Height: 8.54 m
Data from the previous 72 hours. | See also: Recent months for locations in South Australia
Date/Time
CST
Temp
°C
App
Temp
°C
Dew
Point
Rel
Hum
%
Delta-T
°C
Wind Press
QNH
hPa
Press
MSL
hPa
Rain
since 9 am
mm
Dir
 
Spd
km/h
Gust
km/h
Spd
kts
Gust
kts
01/11:00am - - - - - ESE 30 35 16 19 - - -
01/10:30am - - - - - SE 26 32 14 17 - - -
01/10:00am - - - - - SE 26 32 14 17 - - -
01/09:30am - - - - - SE 24 30 13 16 - - -
01/09:00am - - - - - ESE 24 32 13 17 - - -
01/08:30am - - - - - ESE 26 33 14 18 - - -
01/08:00am - - - - - ESE 26 35 14 19 - - -
01/07:30am - - - - - SE 33 39 18 21 - - -
01/07:00am - - - - - SE 33 41 18 22 - - -
01/06:30am - - - - - SE 37 46 20 25 - - -
01/06:00am - - - - - SSE 33 43 18 23 - - -
01/05:30am - - - - - SE 20 26 11 14 - - -
01/05:00am - - - - - ESE 6 9 3 5 - - -
01/04:30am - - - - - E 4 6 2 3 - - -
01/04:00am - - - - - E 4 4 2 2 - - -
01/03:30am - - - - - E 7 7 4 4 - - -
01/03:00am - - - - - E 6 6 3 3 - - -
01/02:30am - - - - - SE 6 6 3 3 - - -
01/02:00am - - - - - SSE 6 7 3 4 - - -
01/01:30am - - - - - S 7 9 4 5 - - -
01/01:00am - - - - - SE 7 9 4 5 - - -
01/12:30am - - - - - SE 11 13 6 7 - - -
01/12:00am - - - - - ESE 9 11 5 6 - - -
 
Date/Time
CST
Temp
°C
App
Temp
°C
Dew
Point
Rel
Hum
%
Delta-T
°C
Wind Press
QNH
hPa
Press
MSL
hPa
Rain
since 9 am
mm
Dir
 
Spd
km/h
Gust
km/h
Spd
kts
Gust
kts
31/11:30pm - - - - - SSE 9 11 5 6 - - -
31/11:00pm - - - - - ESE 9 13 5 7 - - -
31/10:30pm - - - - - ESE 7 11 4 6 - - -
31/10:00pm - - - - - ESE 11 13 6 7 - - -
31/09:30pm - - - - - ESE 13 17 7 9 - - -
31/09:00pm - - - - - ESE 11 13 6 7 - - -
31/08:30pm - - - - - SE 13 17 7 9 - - -
31/08:00pm - - - - - SSE 11 13 6 7 - - -
31/07:30pm - - - - - SE 15 15 8 8 - - -
31/07:00pm - - - - - SE 9 9 5 5 - - -
31/06:30pm - - - - - ESE 9 11 5 6 - - -
31/06:00pm - - - - - SE 9 11 5 6 - - -
31/05:30pm - - - - - SE 13 15 7 8 - - -
31/05:00pm - - - - - SE 9 13 5 7 - - -
31/04:30pm - - - - - SE 7 9 4 5 - - -
31/04:00pm - - - - - SSE 7 7 4 4 - - -
31/03:30pm - - - - - SW 4 6 2 3 - - -
31/03:00pm - - - - - NW 9 11 5 6 - - -
31/02:30pm - - - - - NNW 7 9 4 5 - - -
31/02:00pm - - - - - NNW 6 11 3 6 - - -
31/01:30pm - - - - - N 13 17 7 9 - - -
31/01:00pm - - - - - NNE 7 7 4 4 - - -
31/12:30pm - - - - - NNE 6 7 3 4 - - -
31/12:00pm - - - - - N 7 9 4 5 - - -
31/11:30am - - - - - NE 2 2 1 1 - - -
31/11:00am - - - - - N 2 4 1 2 - - -
31/10:30am - - - - - NNE 7 9 4 5 - - -
31/10:00am - - - - - NE 7 9 4 5 - - -
31/09:30am - - - - - NNE 9 11 5 6 - - -
31/09:00am - - - - - NNE 9 11 5 6 - - -
31/08:30am - - - - - NE 6 7 3 4 - - -
31/08:00am - - - - - NNE 9 9 5 5 - - -
31/07:30am - - - - - NE 7 9 4 5 - - -
31/07:00am - - - - - NNE 7 7 4 4 - - -
31/06:30am - - - - - NNE 11 15 6 8 - - -
31/06:00am - - - - - NNE 9 11 5 6 - - -
31/05:30am - - - - - NNE 13 17 7 9 - - -
31/05:00am - - - - - N 11 13 6 7 - - -
31/04:30am - - - - - NNE 7 9 4 5 - - -
31/04:00am - - - - - NE 6 7 3 4 - - -
31/03:30am - - - - - NNE 11 13 6 7 - - -
31/03:00am - - - - - N 7 9 4 5 - - -
31/02:30am - - - - - NNE 7 9 4 5 - - -
31/02:00am - - - - - N 6 7 3 4 - - -
31/01:30am - - - - - N 9 11 5 6 - - -
31/01:00am - - - - - N 11 13 6 7 - - -
31/12:30am - - - - - NNE 11 13 6 7 - - -
31/12:00am - - - - - N 9 11 5 6 - - -
 
Date/Time
CST
Temp
°C
App
Temp
°C
Dew
Point
Rel
Hum
%
Delta-T
°C
Wind Press
QNH
hPa
Press
MSL
hPa
Rain
since 9 am
mm
Dir
 
Spd
km/h
Gust
km/h
Spd
kts
Gust
kts
30/11:30pm - - - - - N 11 13 6 7 - - -
30/11:00pm - - - - - N 9 11 5 6 - - -
30/10:30pm - - - - - NNE 4 6 2 3 - - -
30/10:00pm - - - - - WNW 4 4 2 2 - - -
30/09:30pm - - - - - NW 6 6 3 3 - - -
30/09:00pm - - - - - WSW 4 6 2 3 - - -
30/08:30pm - - - - - WNW 6 6 3 3 - - -
30/08:00pm - - - - - SW 4 6 2 3 - - -
30/07:30pm - - - - - SW 7 9 4 5 - - -
30/07:00pm - - - - - SW 9 9 5 5 - - -
30/06:30pm - - - - - SW 7 7 4 4 - - -
30/06:00pm - - - - - SW 7 9 4 5 - - -
30/05:30pm - - - - - WSW 11 11 6 6 - - -
30/05:00pm - - - - - WSW 13 13 7 7 - - -
30/04:30pm - - - - - SW 11 11 6 6 - - -
30/04:00pm - - - - - SW 11 13 6 7 - - -
30/03:30pm - - - - - WSW 9 11 5 6 - - -
30/03:00pm - - - - - SW 11 13 6 7 - - -
30/02:30pm - - - - - SW 13 15 7 8 - - -
30/02:00pm - - - - - SW 11 15 6 8 - - -
30/01:30pm - - - - - SW 9 11 5 6 - - -
30/01:00pm - - - - - SW 13 15 7 8 - - -
30/12:30pm - - - - - SW 19 22 10 12 - - -
30/12:00pm - - - - - SW 15 19 8 10 - - -
30/11:30am - - - - - WSW 11 13 6 7 - - -
30/11:00am - - - - - WNW 9 11 5 6 - - -
30/10:30am - - - - - NNW 9 11 5 6 - - -
30/10:00am - - - - - NW 7 9 4 5 - - -
30/09:30am - - - - - N 13 13 7 7 - - -
30/09:00am - - - - - NNE 6 7 3 4 - - -
30/08:30am - - - - - N 9 11 5 6 - - -
30/08:00am - - - - - N 6 11 3 6 - - -
30/07:30am - - - - - NW 11 13 6 7 - - -
30/07:00am - - - - - W 11 13 6 7 - - -
30/06:30am - - - - - WNW 11 15 6 8 - - -
30/06:00am - - - - - NW 20 24 11 13 - - -
30/05:30am - - - - - N 26 30 14 16 - - -
30/05:00am - - - - - N 30 35 16 19 - - -
30/04:30am - - - - - N 32 37 17 20 - - -
30/04:00am - - - - - N 28 35 15 19 - - -
30/03:30am - - - - - N 35 41 19 22 - - -
30/03:00am - - - - - N 32 37 17 20 - - -
30/02:30am - - - - - NNE 28 33 15 18 - - -
30/02:00am - - - - - NNE 28 33 15 18 - - -
30/01:30am - - - - - N 32 37 17 20 - - -
30/01:00am - - - - - N 30 35 16 19 - - -
30/12:30am - - - - - N 28 33 15 18 - - -
30/12:00am - - - - - NNE 22 30 12 16 - - -
 
Date/Time
CST
Temp
°C
App
Temp
°C
Dew
Point
Rel
Hum
%
Delta-T
°C
Wind Press
QNH
hPa
Press
MSL
hPa
Rain
since 9 am
mm
Dir
 
Spd
km/h
Gust
km/h
Spd
kts
Gust
kts
29/11:30pm - - - - - NNE 24 28 13 15 - - -
29/11:00pm - - - - - NNE 26 30 14 16 - - -
29/10:30pm - - - - - NNE 28 32 15 17 - - -
29/10:00pm - - - - - NNE 28 35 15 19 - - -
29/09:30pm - - - - - NNE 32 39 17 21 - - -
29/09:00pm - - - - - NNE 30 37 16 20 - - -
29/08:30pm - - - - - NNE 26 32 14 17 - - -
29/08:00pm - - - - - NNE 22 24 12 13 - - -
29/07:30pm - - - - - NNE 22 24 12 13 - - -
29/07:00pm - - - - - NE 22 26 12 14 - - -
29/06:30pm - - - - - NNE 22 30 12 16 - - -
29/06:00pm - - - - - NNE 26 32 14 17 - - -
29/05:30pm - - - - - NNE 20 24 11 13 - - -
29/05:00pm - - - - - NNE 26 30 14 16 - - -
29/04:30pm - - - - - NNE 26 32 14 17 - - -
29/04:00pm - - - - - NNE 24 30 13 16 - - -
29/03:30pm - - - - - NNE 26 32 14 17 - - -
29/03:00pm - - - - - NNE 28 33 15 18 - - -
29/02:30pm - - - - - N 28 37 15 20 - - -
29/02:00pm - - - - - N 33 41 18 22 - - -
29/01:30pm - - - - - N 32 41 17 22 - - -
29/01:00pm - - - - - N 35 44 19 24 - - -
29/12:30pm - - - - - N 39 48 21 26 - - -
29/12:00pm - - - - - N 33 43 18 23 - - -
29/11:30am - - - - - N 39 46 21 25 - - -

Other Formats:

Comma delimited format used in spreadsheet applications
http://www.bom.gov.au/fwo/IDS60801/IDS60801.95653.axf

JavaScript Object Notation format (JSON) in row-major order
http://www.bom.gov.au/fwo/IDS60801/IDS60801.95653.json